Time;durP1;ratioP1;P1;durP2;ratioP2;P2;SDS_P1;SDS_P2;PMS_P1;PMS_P2;Temp;Humidity;BMP_temperature;BMP_pressure;BME280_temperature;BME280_humidity;BME280_pressure;Samples;Min_cycle;Max_cycle;Signal;HPM_P1;HPM_P2
2022/11/04 00:02:26;;;;;;;6.85;2.05;;;;;;;4.96;100.00;99824.66;4905113;29;20439;-87
2022/11/04 00:04:52;;;;;;;6.85;2.10;;;;;;;5.11;100.00;99837.16;4911300;29;20550;-88
2022/11/04 00:10:05;;;;;;;4.95;1.55;;;;;;;4.98;100.00;99811.66;4934127;29;20055;-88
2022/11/04 00:12:31;;;;;;;6.10;1.50;;;;;;;4.93;100.00;99820.38;4917573;29;20059;-90
2022/11/04 00:17:18;;;;;;;6.20;1.77;;;;;;;5.11;100.00;99839.75;4927059;29;20054;-90
2022/11/04 00:17:45;;;;;;;5.43;1.42;;;;;;;4.91;100.00;99796.25;4927977;29;20051;-89
2022/11/04 00:28:42;;;;;;;4.07;1.73;;;;;;;5.19;100.00;99825.69;4934871;29;20081;-90
2022/11/04 00:33:57;;;;;;;5.20;1.48;;;;;;;5.30;100.00;99829.69;4934382;29;20122;-89
2022/11/04 00:36:24;;;;;;;3.58;1.30;;;;;;;5.42;100.00;99849.25;4934850;29;20418;-90
2022/11/04 00:38:52;;;;;;;2.58;1.20;;;;;;;5.33;100.00;99829.59;4933478;29;20060;-90
2022/11/04 00:41:25;;;;;;;4.13;1.52;;;;;;;5.44;100.00;99852.63;4925955;29;20487;-89
2022/11/04 00:44:00;;;;;;;3.70;1.30;;;;;;;5.49;100.00;99853.34;4917763;29;20395;-89
2022/11/04 00:46:29;;;;;;;4.32;1.48;;;;;;;5.41;100.00;99828.50;4925494;29;20078;-89
2022/11/04 00:48:56;;;;;;;4.40;1.35;;;;;;;5.44;100.00;99837.06;4917030;29;21261;-89
2022/11/04 00:51:23;;;;;;;5.20;1.20;;;;;;;5.10;100.00;99775.81;4934468;29;20051;-90
2022/11/04 00:53:51;;;;;;;4.85;1.20;;;;;;;5.65;100.00;99860.66;4934319;29;20051;-89
2022/11/04 00:56:17;;;;;;;3.75;1.30;;;;;;;5.59;100.00;99846.09;4917304;29;20055;-90
2022/11/04 00:58:44;;;;;;;3.20;1.20;;;;;;;5.50;100.00;99825.63;4932632;29;20048;-89
2022/11/04 01:01:16;;;;;;;5.18;1.40;;;;;;;5.48;100.00;99832.63;4915512;29;20407;-89
2022/11/04 01:03:48;;;;;;;1.65;1.08;;;;;;;5.56;100.00;99833.25;4932910;29;21170;-88
2022/11/04 01:06:16;;;;;;;2.92;1.20;;;;;;;5.77;100.00;99859.41;4933289;29;20635;-88
2022/11/04 01:08:43;;;;;;;3.72;1.40;;;;;;;5.80;100.00;99872.31;4917790;29;20090;-88
2022/11/04 01:11:10;;;;;;;4.25;1.17;;;;;;;5.77;100.00;99852.50;4932851;29;20530;-90
2022/11/04 01:13:38;;;;;;;2.33;1.17;;;;;;;5.75;100.00;99845.63;4933055;29;20078;-89
2022/11/04 01:16:08;;;;;;;4.00;1.05;;;;;;;5.83;100.00;99874.81;4933820;29;20055;-89
2022/11/04 01:18:35;;;;;;;2.38;1.10;;;;;;;5.60;100.00;99840.03;4917171;29;20071;-89
2022/11/04 01:21:04;;;;;;;2.00;1.02;;;;;;;5.61;100.00;99833.06;4933797;29;20107;-89
2022/11/04 01:23:33;;;;;;;6.15;1.60;;;;;;;5.68;100.00;99834.56;4934001;29;20402;-88
2022/11/04 01:26:00;;;;;;;3.35;1.10;;;;;;;5.70;100.00;99837.97;4933952;29;20142;-89
2022/11/04 01:28:26;;;;;;;4.22;1.17;;;;;;;5.92;100.00;99876.28;4933456;29;20462;-89
2022/11/04 01:30:53;;;;;;;5.30;1.30;;;;;;;5.66;100.00;99851.97;4932647;29;20052;-89
2022/11/04 01:33:20;;;;;;;4.53;1.30;;;;;;;5.63;100.00;99850.31;4932946;29;20052;-89
2022/11/04 01:35:46;;;;;;;3.63;1.10;;;;;;;5.69;100.00;99863.09;4917975;29;20118;-89
2022/11/04 01:38:13;;;;;;;3.80;1.00;;;;;;;5.45;100.00;99832.69;4934909;29;20470;-89
2022/11/04 01:40:40;;;;;;;3.00;1.10;;;;;;;5.71;100.00;99865.66;4916833;29;20055;-89
2022/11/04 01:43:15;;;;;;;1.80;1.00;;;;;;;5.73;100.00;99874.25;4934057;29;20509;-89
2022/11/04 01:45:50;;;;;;;3.53;1.08;;;;;;;5.78;100.00;99877.56;4933735;29;20070;-90
2022/11/04 01:48:33;;;;;;;2.53;1.20;;;;;;;5.61;100.00;99849.53;4920765;29;20498;-89
2022/11/04 01:50:59;;;;;;;5.32;1.40;;;;;;;5.69;100.00;99864.84;4916882;29;20455;-89
2022/11/04 01:53:40;;;;;;;4.15;1.30;;;;;;;5.78;100.00;99877.56;4930466;29;20039;-89
2022/11/04 01:56:11;;;;;;;5.07;1.50;;;;;;;5.78;100.00;99892.28;4933022;29;20055;-89
2022/11/04 01:58:54;;;;;;;2.30;1.02;;;;;;;5.82;100.00;99892.13;4932701;29;20095;-89
2022/11/04 02:01:21;;;;;;;2.50;1.13;;;;;;;5.45;100.00;99861.25;4917107;29;20067;-89
2022/11/04 02:06:47;;;;;;;2.78;1.20;;;;;;;5.53;100.00;99879.22;4934330;29;20055;-89
2022/11/04 02:09:16;;;;;;;4.07;1.23;;;;;;;5.57;100.00;99873.03;4920498;29;20504;-89
2022/11/04 02:14:29;;;;;;;1.40;1.00;;;;;;;5.59;100.00;99866.03;4935156;29;20055;-89
2022/11/04 02:17:13;;;;;;;6.10;1.38;;;;;;;5.77;100.00;99893.19;4920753;29;20047;-89
2022/11/04 02:20:05;;;;;;;2.75;1.20;;;;;;;5.81;100.00;99890.44;4936322;29;20548;-89
2022/11/04 02:22:44;;;;;;;3.10;1.20;;;;;;;5.79;100.00;99891.38;4936091;29;20627;-89
2022/11/04 02:25:17;;;;;;;5.13;1.35;;;;;;;5.75;100.00;99894.97;4936507;29;20066;-89
2022/11/04 02:28:15;;;;;;;3.72;1.15;;;;;;;5.47;100.00;99857.75;4936909;29;20054;-89
2022/11/04 02:30:48;;;;;;;5.60;1.42;;;;;;;5.53;100.00;99884.41;4934763;29;20051;-89
2022/11/04 02:33:28;;;;;;;1.75;1.10;;;;;;;5.61;100.00;99888.47;4935671;29;20059;-89
2022/11/04 02:36:18;;;;;;;2.50;1.08;;;;;;;5.63;100.00;99880.63;4920243;29;20060;-89
2022/11/04 02:38:59;;;;;;;5.63;1.15;;;;;;;5.65;100.00;99887.47;4912735;29;20536;-89
2022/11/04 02:41:51;;;;;;;1.38;1.00;;;;;;;5.49;100.00;99844.72;4936491;29;20114;-88
2022/11/04 02:44:50;;;;;;;5.03;1.20;;;;;;;5.90;100.00;99910.94;4935526;29;20066;-89
2022/11/04 02:47:25;;;;;;;4.07;1.20;;;;;;;5.88;100.00;99911.91;4935226;29;20066;-88
2022/11/04 02:49:59;;;;;;;2.55;1.10;;;;;;;5.74;100.00;99888.94;4935677;29;20051;-88
2022/11/04 02:53:00;;;;;;;4.07;1.30;;;;;;;5.90;100.00;99907.50;4920110;29;20051;-89
2022/11/04 02:55:42;;;;;;;2.85;1.00;;;;;;;5.81;100.00;99898.25;4942235;29;20066;-89
2022/11/04 02:58:17;;;;;;;2.80;1.10;;;;;;;5.91;100.00;99919.56;4925066;29;20111;-88
2022/11/04 03:00:45;;;;;;;6.50;2.35;;;;;;;5.61;100.00;99888.47;4935753;29;20107;-88
2022/11/04 03:03:17;;;;;;;2.90;1.10;;;;;;;5.88;100.00;99923.13;4919368;29;20047;-89
2022/11/04 03:05:48;;;;;;;2.88;1.05;;;;;;;5.98;100.00;99931.50;4935904;29;20433;-89
2022/11/04 03:08:37;;;;;;;2.95;1.50;;;;;;;5.69;100.00;99902.06;4935849;29;20059;-88
2022/11/04 03:11:14;;;;;;;2.05;1.00;;;;;;;5.51;100.00;99926.00;4918755;29;20406;-87
2022/11/04 03:13:54;;;;;;;3.20;1.00;;;;;;;5.48;100.00;99932.13;4933757;29;20406;-88
2022/11/04 03:16:28;;;;;;;4.50;1.23;;;;;;;5.30;100.00;99911.91;4919497;29;20051;-88
2022/11/04 03:19:06;;;;;;;2.22;1.00;;;;;;;5.09;100.00;99877.03;4935325;29;20048;-88
2022/11/04 03:21:37;;;;;;;2.30;1.20;;;;;;;5.14;100.00;99893.31;4939722;29;20125;-88
2022/11/04 03:24:05;;;;;;;2.67;1.80;;;;;;;5.10;100.00;99900.34;4919523;29;20115;-88
2022/11/04 03:26:59;;;;;;;2.63;1.10;;;;;;;5.42;100.00;99936.63;4935138;29;20106;-88
2022/11/04 03:29:26;;;;;;;3.50;1.02;;;;;;;5.35;100.00;99936.00;4927347;29;20197;-88
2022/11/04 03:31:59;;;;;;;3.40;1.10;;;;;;;5.27;100.00;99950.91;4934805;29;20052;-88
2022/11/04 03:34:26;;;;;;;2.15;1.08;;;;;;;5.31;100.00;99952.53;4934500;29;20043;-88
2022/11/04 03:36:53;;;;;;;2.53;1.10;;;;;;;5.14;100.00;99919.28;4935510;29;20055;-88
2022/11/04 03:39:19;;;;;;;3.55;1.05;;;;;;;5.10;100.00;99925.47;4934705;29;20059;-88
2022/11/04 03:41:56;;;;;;;1.83;1.05;;;;;;;5.22;100.00;99932.88;4919595;29;20062;-89
2022/11/04 03:44:23;;;;;;;4.82;1.42;;;;;;;5.23;100.00;99946.72;4918892;29;20062;-88
2022/11/04 03:46:54;;;;;;;3.28;1.15;;;;;;;5.44;100.00;99971.22;4935681;29;20063;-88
2022/11/04 03:49:23;;;;;;;4.40;1.10;;;;;;;5.18;100.00;99912.25;4934791;29;20060;-88
2022/11/04 03:51:51;;;;;;;5.30;1.67;;;;;;;5.32;100.00;99939.50;4935886;29;20063;-87
2022/11/04 03:54:18;;;;;;;2.80;1.15;;;;;;;5.24;100.00;99923.31;4934941;29;20087;-88
2022/11/04 03:57:22;;;;;;;4.57;1.13;;;;;;;5.64;100.00;99965.44;4935440;29;20056;-88
2022/11/04 04:00:05;;;;;;;;;;;;;;;5.67;100.00;99971.38;4934682;29;20044;-88
2022/11/04 04:02:46;;;;;;;3.08;1.08;;;;;;;5.37;100.00;99928.16;4918751;29;19922;-88
2022/11/04 04:05:34;;;;;;;5.35;1.20;;;;;;;5.66;100.00;99963.63;4935216;29;20055;-88
2022/11/04 04:08:25;;;;;;;2.97;1.40;;;;;;;5.42;100.00;99929.72;4926105;29;20383;-88
2022/11/04 04:11:22;;;;;;;2.17;1.15;;;;;;;5.67;100.00;99967.94;4934078;29;20470;-88
2022/11/04 04:14:12;;;;;;;5.93;1.10;;;;;;;5.61;100.00;99978.50;4932846;29;20079;-88
2022/11/04 04:16:44;;;;;;;6.38;1.42;;;;;;;5.56;100.00;99970.00;4924671;29;20056;-88
2022/11/04 04:19:18;;;;;;;4.25;1.48;;;;;;;5.30;100.00;99938.69;4918522;29;20048;-88
2022/11/04 04:22:02;;;;;;;5.80;1.30;;;;;;;5.56;100.00;99983.84;4918646;29;20055;-88
2022/11/04 04:27:30;;;;;;;2.25;1.10;;;;;;;5.54;100.00;99962.25;4935459;29;20055;-87
2022/11/04 04:30:15;;;;;;;2.38;1.20;;;;;;;5.68;100.00;99988.69;4916917;29;20078;-88
2022/11/04 04:32:50;;;;;;;4.90;1.20;;;;;;;5.73;100.00;99991.13;4933920;29;20071;-88
2022/11/04 04:35:41;;;;;;;3.78;1.33;;;;;;;5.59;100.00;99956.94;4934190;29;20131;-88
2022/11/04 04:47:22;;;;;;;3.13;1.10;;;;;;;5.66;100.00;99984.41;4935242;29;20181;-88
2022/11/04 04:49:56;;;;;;;2.72;1.02;;;;;;;5.56;100.00;99972.59;4917225;29;20055;-88
2022/11/04 04:52:26;;;;;;;2.90;1.00;;;;;;;5.39;100.00;99968.75;4917612;29;20051;-88
2022/11/04 04:54:52;;;;;;;1.83;0.90;;;;;;;5.08;100.00;99930.69;4917866;29;20110;-88
2022/11/04 04:57:19;;;;;;;3.38;1.10;;;;;;;5.21;100.00;99964.09;4918557;29;20051;-88
2022/11/04 04:59:46;;;;;;;2.75;1.10;;;;;;;5.29;100.00;99980.28;4932825;29;20048;-88
2022/11/04 05:02:12;;;;;;;2.58;1.10;;;;;;;5.31;100.00;99973.28;4914636;29;20423;-88
2022/11/04 05:04:39;;;;;;;4.90;1.35;;;;;;;5.50;100.00;100003.03;4934932;29;20048;-88
2022/11/04 05:07:08;;;;;;;5.72;1.40;;;;;;;5.47;100.00;99984.97;4932692;29;20687;-88
2022/11/04 05:09:35;;;;;;;2.83;1.08;;;;;;;5.30;100.00;99976.78;4922368;29;20531;-87
2022/11/04 05:12:02;;;;;;;3.97;1.00;;;;;;;5.48;100.00;99994.44;4917968;29;20107;-88
2022/11/04 05:14:29;;;;;;;3.38;1.10;;;;;;;5.25;100.00;99976.06;4917663;29;20047;-88
2022/11/04 05:16:56;;;;;;;4.55;1.33;;;;;;;5.51;100.00;100012.53;4933638;29;20052;-88
2022/11/04 05:19:23;;;;;;;3.13;1.10;;;;;;;5.13;100.00;99966.88;4917201;29;20052;-88
2022/11/04 05:21:49;;;;;;;2.88;1.10;;;;;;;5.24;100.00;99983.00;4933256;29;20071;-88
2022/11/04 05:24:16;;;;;;;3.67;1.00;;;;;;;5.41;100.00;100018.03;4933106;29;20439;-89
2022/11/04 05:26:43;;;;;;;2.05;1.30;;;;;;;5.28;100.00;100004.53;4932875;29;20044;-89
2022/11/04 05:29:11;;;;;;;5.90;1.40;;;;;;;5.47;100.00;100016.13;4932968;29;20479;-89
2022/11/04 05:31:38;;;;;;;3.70;1.15;;;;;;;5.13;100.00;99948.69;4933347;29;20175;-89
2022/11/04 05:34:05;;;;;;;3.97;1.17;;;;;;;5.40;100.00;100008.53;4917792;29;20063;-89
2022/11/04 05:36:32;;;;;;;1.02;0.93;;;;;;;5.29;100.00;100001.03;4917694;29;20486;-88
2022/11/04 05:38:58;;;;;;;1.85;1.13;;;;;;;5.16;100.00;99992.75;4933759;29;20057;-88
2022/11/04 05:41:25;;;;;;;3.03;1.58;;;;;;;5.03;100.00;99974.06;4919031;29;20062;-88
2022/11/04 05:44:00;;;;;;;3.10;1.02;;;;;;;5.10;100.00;100019.72;4937410;29;20074;-89
2022/11/04 05:46:28;;;;;;;1.17;0.98;;;;;;;5.11;100.00;100034.38;4921552;29;20059;-88
2022/11/04 05:48:55;;;;;;;2.53;1.02;;;;;;;4.88;100.00;100027.19;4937698;29;20450;-89
2022/11/04 05:51:25;;;;;;;4.30;1.30;;;;;;;4.67;100.00;100033.75;4919952;29;20058;-88
2022/11/04 05:53:52;;;;;;;3.53;1.02;;;;;;;4.47;100.00;100038.59;4938350;29;20099;-88
2022/11/04 05:56:19;;;;;;;2.80;1.15;;;;;;;4.24;100.00;100008.88;4937286;29;20055;-88
2022/11/04 05:58:46;;;;;;;5.03;1.15;;;;;;;4.10;100.00;100016.97;4938013;29;20085;-88
2022/11/04 06:01:28;;;;;;;5.43;1.33;;;;;;;3.97;100.00;99989.63;4935713;29;20054;-88
2022/11/04 06:03:56;;;;;;;3.00;1.15;;;;;;;4.37;100.00;100045.72;4938027;29;20140;-88
2022/11/04 06:06:24;;;;;;;3.70;1.10;;;;;;;4.49;100.00;100010.88;4937434;29;20055;-88
2022/11/04 06:08:52;;;;;;;4.43;1.35;;;;;;;4.66;100.00;99979.38;4937180;29;20051;-88
2022/11/04 06:11:19;;;;;;;2.97;1.10;;;;;;;5.23;100.00;100033.22;4916995;29;20392;-88
2022/11/04 06:13:47;;;;;;;3.25;1.10;;;;;;;5.59;100.00;100040.03;4921450;29;20626;-88
2022/11/04 06:16:14;;;;;;;4.55;1.17;;;;;;;5.66;100.00;100031.16;4935856;29;20078;-88
2022/11/04 06:18:40;;;;;;;4.78;1.30;;;;;;;5.69;100.00;100011.16;4937442;29;20055;-88
2022/11/04 06:21:13;;;;;;;2.35;1.10;;;;;;;6.00;100.00;100043.19;4919416;29;20051;-88
2022/11/04 06:23:41;;;;;;;2.25;1.02;;;;;;;5.81;100.00;100007.34;4936799;29;20447;-88
2022/11/04 06:26:09;;;;;;;3.83;1.10;;;;;;;6.03;100.00;100045.72;4937070;29;20056;-89
2022/11/04 06:28:36;;;;;;;2.42;1.10;;;;;;;5.60;100.00;99995.84;4939571;29;20115;-91
2022/11/04 06:31:05;;;;;;;1.95;0.90;;;;;;;5.82;100.00;100048.00;4938788;29;20055;-93
2022/11/04 06:33:32;;;;;;;2.65;1.10;;;;;;;5.94;100.00;100079.75;4922746;29;20483;-91
2022/11/04 06:36:04;;;;;;;3.33;1.48;;;;;;;5.68;100.00;100035.44;4939864;29;20055;-89
2022/11/04 06:38:33;;;;;;;5.15;1.10;;;;;;;5.89;100.00;100085.91;4923824;29;20051;-92
2022/11/04 06:41:00;;;;;;;4.50;1.40;;;;;;;5.74;100.00;100065.56;4938697;29;20059;-90
2022/11/04 06:43:27;;;;;;;4.13;1.40;;;;;;;5.78;100.00;100069.78;4936891;29;20040;-91
2022/11/04 06:45:55;;;;;;;2.45;1.02;;;;;;;5.75;100.00;100051.69;4938070;29;20111;-92
2022/11/04 06:48:21;;;;;;;4.45;1.55;;;;;;;5.65;100.00;100050.25;4921299;29;20048;-92
2022/11/04 06:50:48;;;;;;;3.47;1.00;;;;;;;5.59;100.00;100043.47;4922394;29;20060;-91
2022/11/04 06:53:15;;;;;;;4.13;1.13;;;;;;;5.65;100.00;100056.28;4920285;29;20055;-87
2022/11/04 06:56:02;;;;;;;4.07;1.27;;;;;;;5.73;100.00;100078.59;4935530;29;20554;-88
2022/11/04 06:58:47;;;;;;;2.25;1.08;;;;;;;5.42;100.00;100071.63;4941015;29;20058;-87
2022/11/04 07:01:17;;;;;;;;;;;;;;;5.33;100.00;100067.56;4950265;29;20052;-87
2022/11/04 07:03:59;;;;;;;4.57;1.20;;;;;;;5.19;100.00;100044.56;4948175;29;20301;-87
2022/11/04 07:06:42;;;;;;;3.28;1.10;;;;;;;5.13;100.00;100023.97;4950325;29;20047;-86
2022/11/04 07:09:23;;;;;;;3.13;1.30;;;;;;;5.51;100.00;100050.63;4935840;29;20044;-88
2022/11/04 07:12:04;;;;;;;2.10;1.23;;;;;;;5.53;100.00;100046.25;4937526;29;20056;-87
2022/11/04 07:14:44;;;;;;;3.80;1.00;;;;;;;5.59;100.00;100042.63;4936547;29;20574;-86
2022/11/04 07:17:20;;;;;;;3.92;1.30;;;;;;;5.78;100.00;100072.38;4950092;29;20070;-87
2022/11/04 07:19:48;;;;;;;1.52;1.00;;;;;;;5.74;100.00;100082.88;4950269;29;20046;-89
2022/11/04 07:22:28;;;;;;;3.70;1.30;;;;;;;5.83;100.00;100078.31;4937649;29;20124;-87
2022/11/04 07:24:58;;;;;;;2.70;1.10;;;;;;;5.63;100.00;100046.81;4952868;29;20300;-88
2022/11/04 07:27:39;;;;;;;3.55;1.17;;;;;;;5.77;100.00;100080.22;4932520;29;20118;-86
2022/11/04 07:30:08;;;;;;;2.75;1.38;;;;;;;5.61;100.00;100061.59;4950350;29;20717;-86
2022/11/04 07:32:48;;;;;;;4.00;1.27;;;;;;;5.83;100.00;100087.84;4935703;29;20434;-88
2022/11/04 07:35:29;;;;;;;3.70;1.00;;;;;;;5.53;100.00;100079.16;4937473;29;20062;-88
2022/11/04 07:38:10;;;;;;;4.88;1.27;;;;;;;5.61;100.00;100072.88;4949571;29;20074;-89
2022/11/04 07:40:50;;;;;;;3.45;1.30;;;;;;;5.60;100.00;100067.72;4931605;29;20056;-88
2022/11/04 07:43:21;;;;;;;2.15;0.90;;;;;;;5.72;100.00;100080.34;4953799;29;20043;-89
2022/11/04 07:46:11;;;;;;;2.75;1.15;;;;;;;5.66;100.00;100083.13;4952279;29;20054;-89
2022/11/04 07:48:52;;;;;;;2.22;1.00;;;;;;;5.81;100.00;100119.06;4949074;29;20047;-88
2022/11/04 07:51:33;;;;;;;5.75;1.08;;;;;;;5.61;100.00;100109.22;4938510;29;20425;-88
2022/11/04 07:54:13;;;;;;;3.45;1.25;;;;;;;5.31;100.00;100101.34;4935656;29;20046;-88
2022/11/04 07:56:54;;;;;;;2.63;1.00;;;;;;;5.13;100.00;100083.66;4939991;29;20048;-89
2022/11/04 07:59:35;;;;;;;6.93;1.60;;;;;;;5.01;100.00;100076.16;4949805;29;20055;-88
2022/11/04 08:02:04;;;;;;;4.30;1.30;;;;;;;5.18;100.00;100110.34;4952131;29;20044;-89
2022/11/04 08:04:37;;;;;;;5.25;1.33;;;;;;;5.23;100.00;100123.22;4939341;29;20443;-89
2022/11/04 08:07:09;;;;;;;3.25;1.15;;;;;;;4.80;100.00;100075.84;4933898;29;20039;-89
2022/11/04 08:09:38;;;;;;;4.95;1.52;;;;;;;5.09;100.00;100127.00;4943443;29;20051;-89
2022/11/04 08:12:20;;;;;;;5.90;1.50;;;;;;;4.57;100.00;100048.69;4954908;28;20047;-90
2022/11/04 08:15:02;;;;;;;5.47;1.50;;;;;;;4.70;100.00;99997.38;4940190;29;20031;-89
2022/11/04 08:17:42;;;;;;;3.15;1.30;;;;;;;5.02;100.00;99990.50;4939630;29;20067;-89
2022/11/04 08:20:23;;;;;;;2.22;1.10;;;;;;;6.60;100.00;100130.63;4929972;29;20600;-89
2022/11/04 08:23:04;;;;;;;3.83;1.30;;;;;;;6.77;100.00;100126.69;4950291;29;20123;-88
2022/11/04 08:25:45;;;;;;;3.55;1.88;;;;;;;6.70;100.00;100096.56;4939386;29;20129;-87
2022/11/04 08:28:28;;;;;;;5.78;1.45;;;;;;;6.90;100.00;100094.13;4929545;29;20040;-88
2022/11/04 08:31:24;;;;;;;2.33;1.10;;;;;;;7.47;100.00;100125.22;4953598;29;20091;-88
2022/11/04 08:34:07;;;;;;;3.58;1.10;;;;;;;7.56;100.00;100133.59;4939008;29;20079;-88
2022/11/04 08:36:48;;;;;;;3.45;1.20;;;;;;;7.92;100.00;100114.94;4940298;29;20070;-89
2022/11/04 08:39:28;;;;;;;3.75;0.90;;;;;;;8.37;100.00;100144.56;4938657;29;20047;-89
2022/11/04 08:42:09;;;;;;;5.10;1.10;;;;;;;8.62;100.00;100147.13;4939978;29;20059;-89
2022/11/04 08:44:51;;;;;;;3.65;1.02;;;;;;;8.41;100.00;100106.16;4938530;29;20103;-88
2022/11/04 08:47:32;;;;;;;3.20;1.10;;;;;;;7.93;100.00;100134.91;4935804;29;20137;-89
2022/11/04 08:50:13;;;;;;;3.13;1.10;;;;;;;7.39;100.00;100110.72;4950993;29;20047;-90
2022/11/04 08:52:53;;;;;;;5.47;1.25;;;;;;;7.39;100.00;100102.91;4951528;29;20056;-90
2022/11/04 08:55:34;;;;;;;4.22;1.17;;;;;;;7.14;100.00;100105.50;4947915;29;20039;-89
2022/11/04 08:58:16;;;;;;;4.20;1.30;;;;;;;6.95;100.00;100084.44;4947955;29;20039;-88
2022/11/04 09:01:01;;;;;;;2.30;1.00;;;;;;;7.21;100.00;100100.94;4945397;29;20131;-89
2022/11/04 09:03:42;;;;;;;3.03;1.20;;;;;;;7.43;100.00;100121.03;4946102;29;20027;-89
2022/11/04 09:06:26;;;;;;;4.25;1.25;;;;;;;7.40;100.00;100107.22;4951857;29;20059;-89
2022/11/04 09:09:11;;;;;;;3.53;1.40;;;;;;;7.49;100.00;100115.59;4949837;29;20085;-90
2022/11/04 09:11:52;;;;;;;2.15;0.95;;;;;;;7.49;100.00;100084.34;4924251;29;20039;-88
2022/11/04 09:14:33;;;;;;;1.55;0.90;;;;;;;7.58;100.00;100082.28;4937591;29;20059;-89
2022/11/04 09:17:14;;;;;;;3.33;1.27;;;;;;;7.82;100.00;100117.94;4946607;29;20044;-89
2022/11/04 09:19:55;;;;;;;4.03;1.30;;;;;;;7.97;100.00;100120.00;4932850;29;20044;-89
2022/11/04 09:22:35;;;;;;;4.10;1.15;;;;;;;7.79;100.00;100126.69;4926125;29;20127;-88
2022/11/04 09:25:16;;;;;;;3.42;1.38;;;;;;;7.58;100.00;100079.69;4953301;29;20048;-89
2022/11/04 09:27:56;;;;;;;4.45;1.55;;;;;;;7.46;100.00;100080.09;4933147;29;20067;-90
2022/11/04 09:30:37;;;;;;;7.78;2.30;;;;;;;7.58;100.00;100086.66;4938031;29;20061;-89
2022/11/04 09:33:18;;;;;;;10.57;3.17;;;;;;;7.64;100.00;100099.44;4943515;29;20570;-89
2022/11/04 09:35:59;;;;;;;7.63;2.60;;;;;;;7.76;100.00;100088.59;4936396;29;20055;-88
2022/11/04 09:38:41;;;;;;;9.55;2.60;;;;;;;7.66;100.00;100061.16;4950203;29;20071;-89
2022/11/04 09:41:55;;;;;;;8.80;2.10;;;;;;;8.31;100.00;100132.63;4935376;29;20052;-89
2022/11/04 09:44:48;;;;;;;;;;;;;;;8.62;100.00;100136.69;4940657;29;20107;-88
2022/11/04 09:47:32;;;;;;;7.13;1.67;;;;;;;8.46;100.00;100128.59;4948141;29;19933;-89
2022/11/04 09:50:23;;;;;;;4.65;1.42;;;;;;;8.51;100.00;100124.06;4937577;29;20083;-89
2022/11/04 09:53:46;;;;;;;6.88;1.88;;;;;;;8.65;100.00;100133.94;4947307;29;20059;-87
2022/11/04 09:56:16;;;;;;;3.10;1.42;;;;;;;8.36;100.00;100116.81;4875174;29;20072;-88
2022/11/04 09:58:56;;;;;;;5.18;1.27;;;;;;;8.21;100.00;100079.09;4934657;29;20059;-88
2022/11/04 10:02:10;;;;;;;7.70;1.65;;;;;;;8.23;100.00;100116.41;4945840;29;20088;-89
2022/11/04 10:05:16;;;;;;;7.85;2.50;;;;;;;8.04;100.00;100151.88;4903115;29;20043;-89
2022/11/04 10:08:03;;;;;;;6.65;1.70;;;;;;;7.97;100.00;100162.56;4950696;29;20036;-87
2022/11/04 10:10:53;;;;;;;4.50;1.30;;;;;;;8.18;100.00;100153.09;4931095;29;20102;-88
2022/11/04 10:14:07;;;;;;;6.50;1.60;;;;;;;8.49;100.00;100151.97;4950991;29;20047;-89
2022/11/04 10:17:11;;;;;;;3.33;1.30;;;;;;;8.78;100.00;100141.31;4935449;29;20083;-88
2022/11/04 10:20:28;;;;;;;5.50;1.30;;;;;;;9.06;100.00;100148.88;4920194;29;20056;-87
2022/11/04 10:23:03;;;;;;;5.18;1.45;;;;;;;9.16;100.00;100151.97;4946903;29;20075;-90
2022/11/04 10:26:19;;;;;;;3.20;1.20;;;;;;;9.44;100.00;100149.06;4934682;29;20047;-89
2022/11/04 10:29:05;;;;;;;4.32;1.20;;;;;;;9.09;100.00;100114.81;4945353;29;20050;-90
2022/11/04 10:31:43;;;;;;;3.47;1.05;;;;;;;9.35;100.00;100124.19;4931871;29;20059;-88
2022/11/04 10:34:33;;;;;;;2.95;1.17;;;;;;;9.69;100.00;100154.94;4952960;29;20115;-89
2022/11/04 10:37:14;;;;;;;5.47;1.20;;;;;;;9.71;100.00;100128.72;4953349;29;20039;-88
2022/11/04 10:40:21;;;;;;;4.10;1.00;;;;;;;9.94;100.00;100143.41;4946205;29;20083;-88
2022/11/04 10:43:09;;;;;;;3.08;1.08;;;;;;;10.02;100.00;100151.75;4953146;29;20062;-88
2022/11/04 10:46:05;;;;;;;4.25;1.08;;;;;;;9.84;100.00;100111.59;4954142;29;20047;-88
2022/11/04 10:48:48;;;;;;;4.18;1.23;;;;;;;9.90;100.00;100152.31;4951165;29;20044;-88
2022/11/04 10:51:29;;;;;;;;;;;;;;;10.05;100.00;100149.00;4943828;29;20062;-90
2022/11/04 10:54:10;;;;;;;7.93;1.67;;;;;;;9.98;100.00;100142.34;4931248;29;19994;-88
2022/11/04 10:56:54;;;;;;;2.40;0.95;;;;;;;10.25;100.00;100145.50;4938768;29;20056;-89
2022/11/04 10:59:34;;;;;;;;;;;;;;;10.34;100.00;100152.09;4949694;29;20276;-88
2022/11/04 11:02:15;;;;;;;2.47;1.17;;;;;;;10.16;100.00;100121.50;4952408;29;19910;-89
2022/11/04 11:05:21;;;;;;;3.35;1.20;;;;;;;10.37;100.00;100127.56;4953946;29;20075;-89
2022/11/04 11:08:01;;;;;;;6.03;1.05;;;;;;;10.56;100.00;100157.19;4949629;29;20526;-90
2022/11/04 11:10:50;;;;;;;4.97;1.30;;;;;;;10.59;100.00;100130.88;4938164;29;20052;-89
2022/11/04 11:13:42;;;;;;;1.75;1.05;;;;;;;10.70;100.00;100153.09;4953280;29;20063;-88
2022/11/04 11:16:29;;;;;;;2.63;0.95;;;;;;;10.44;100.00;100111.47;4931044;29;20043;-88
2022/11/04 11:19:19;;;;;;;2.80;1.30;;;;;;;10.59;100.00;100138.72;4923337;29;20155;-86
2022/11/04 11:21:59;;;;;;;2.97;1.20;;;;;;;10.83;100.00;100146.31;4950366;29;20042;-88
2022/11/04 11:24:41;;;;;;;6.03;1.23;;;;;;;10.47;100.00;100114.91;4941978;29;20039;-88
2022/11/04 11:27:29;;;;;;;4.50;2.53;;;;;;;10.48;100.00;100083.41;4954775;29;20154;-89
2022/11/04 11:30:27;;;;;;;2.90;1.00;;;;;;;10.80;100.00;100075.75;4940646;29;20059;-87
2022/11/04 11:33:35;;;;;;;5.53;1.05;;;;;;;11.06;100.00;100144.38;4941142;29;20498;-87
2022/11/04 11:36:36;;;;;;;3.90;1.08;;;;;;;11.08;100.00;100140.72;4939906;29;20078;-89
2022/11/04 11:39:32;;;;;;;3.55;1.08;;;;;;;11.25;100.00;100145.16;4954200;29;21049;-88
2022/11/04 11:42:15;;;;;;;3.38;0.98;;;;;;;11.13;100.00;100162.31;4941126;29;20545;-88
2022/11/04 11:44:58;;;;;;;4.07;1.13;;;;;;;11.08;100.00;100156.44;4939881;29;20051;-89
2022/11/04 11:47:42;;;;;;;2.97;1.00;;;;;;;11.33;100.00;100144.75;4956542;29;20382;-88
2022/11/04 11:50:34;;;;;;;3.67;1.00;;;;;;;11.13;100.00;100164.09;4938955;29;20074;-88
2022/11/04 11:53:20;;;;;;;6.65;1.60;;;;;;;11.51;100.00;100150.84;4946137;29;20067;-87
2022/11/04 11:56:13;;;;;;;1.73;0.85;;;;;;;11.15;100.00;100162.25;4938450;29;20427;-88
2022/11/04 11:58:58;;;;;;;4.53;1.15;;;;;;;11.39;100.00;100157.56;4949516;29;20047;-87
2022/11/04 12:02:00;;;;;;;4.68;1.33;;;;;;;11.21;100.00;100152.31;4941617;29;20031;-87
2022/11/04 12:04:40;;;;;;;3.47;1.00;;;;;;;11.54;100.00;100148.94;4951433;29;20048;-87
2022/11/04 12:07:50;;;;;;;2.00;0.85;;;;;;;11.40;100.00;100141.78;4938274;29;20178;-86
2022/11/04 12:11:20;;;;;;;2.55;0.82;;;;;;;11.72;100.00;100165.50;4951736;29;20058;-86
2022/11/04 12:14:22;;;;;;;2.33;0.93;;;;;;;11.63;100.00;100141.50;4936764;29;20055;-86
2022/11/04 12:17:29;;;;;;;5.18;1.00;;;;;;;11.69;100.00;100162.19;4952823;29;20044;-88
2022/11/04 12:20:32;;;;;;;5.20;1.20;;;;;;;11.57;100.00;100158.41;4938564;29;20067;-88
2022/11/04 12:23:32;;;;;;;3.25;1.10;;;;;;;11.88;100.00;100159.44;4936734;29;20027;-88
2022/11/04 12:26:36;;;;;;;3.47;1.08;;;;;;;11.86;100.00;100161.31;4938776;29;20055;-86
2022/11/04 12:29:39;;;;;;;4.78;1.10;;;;;;;11.66;100.00;100168.44;4952003;29;20076;-87
2022/11/04 12:32:41;;;;;;;4.50;1.55;;;;;;;11.55;100.00;100165.50;4951938;29;20075;-87
2022/11/04 12:35:45;;;;;;;5.75;1.65;;;;;;;11.32;100.00;100164.88;4938808;29;20115;-86
2022/11/04 12:38:59;;;;;;;4.55;1.00;;;;;;;11.67;100.00;100162.25;4935079;29;20083;-88
2022/11/04 12:42:02;;;;;;;4.03;1.00;;;;;;;11.58;100.00;100118.16;4939262;29;20099;-88
2022/11/04 12:44:52;;;;;;;4.17;1.17;;;;;;;11.96;100.00;100152.06;4946788;29;20046;-88
2022/11/04 12:47:41;;;;;;;2.47;0.93;;;;;;;11.52;100.00;100149.94;4952193;29;20083;-86
2022/11/04 12:50:53;;;;;;;4.53;1.35;;;;;;;11.70;100.00;100153.38;4936797;29;20130;-87
2022/11/04 12:53:49;;;;;;;3.42;0.93;;;;;;;11.69;100.00;100154.31;4951835;29;20051;-89
2022/11/04 12:56:38;;;;;;;3.53;0.90;;;;;;;11.53;100.00;100125.41;4950720;29;20125;-88
2022/11/04 12:59:40;;;;;;;2.67;1.05;;;;;;;11.95;100.00;100155.59;4949302;29;20146;-86